createdAt,value
2018-10-02T00:02:22.466Z,5.24
2018-10-02T00:04:51.261Z,5.27
2018-10-02T00:07:20.064Z,5.29
2018-10-02T00:09:48.859Z,5.27
2018-10-02T00:12:22.802Z,5.27
2018-10-02T00:14:51.579Z,5.32
2018-10-02T00:17:20.178Z,5.36
2018-10-02T00:19:49.047Z,5.38
2018-10-02T00:22:18.055Z,5.45
2018-10-02T00:24:47.068Z,5.46
2018-10-02T00:27:16.109Z,5.51
2018-10-02T00:29:45.387Z,5.49
2018-10-02T00:32:14.398Z,5.49
2018-10-02T00:34:43.180Z,5.45
2018-10-02T00:37:12.036Z,5.47
2018-10-02T00:39:40.849Z,5.49
2018-10-02T00:42:10.788Z,5.48
2018-10-02T00:44:39.714Z,5.52
2018-10-02T00:47:08.462Z,5.54
2018-10-02T00:49:37.342Z,5.53
2018-10-02T00:52:06.566Z,5.55
2018-10-02T00:54:35.656Z,5.59
2018-10-02T00:57:04.432Z,5.62
2018-10-02T00:59:33.699Z,5.65
2018-10-02T01:02:02.729Z,5.65
2018-10-02T01:04:31.923Z,5.69
2018-10-02T01:07:01.061Z,5.68
2018-10-02T01:09:29.976Z,5.72
2018-10-02T01:11:58.704Z,5.75
2018-10-02T01:14:27.520Z,5.76
2018-10-02T01:16:56.758Z,5.79
2018-10-02T01:19:25.786Z,5.79
2018-10-02T01:21:54.660Z,5.78
2018-10-02T01:24:23.612Z,5.83
2018-10-02T01:26:52.610Z,5.82
2018-10-02T01:29:21.584Z,5.84
2018-10-02T01:31:50.574Z,5.86
2018-10-02T01:34:19.258Z,5.87
2018-10-02T01:36:48.222Z,5.16
2018-10-02T01:39:17.150Z,5.89
2018-10-02T01:41:46.027Z,5.87
2018-10-02T01:44:14.840Z,5.83
2018-10-02T01:46:43.637Z,5.70
2018-10-02T01:49:12.618Z,5.71
2018-10-02T01:51:41.610Z,5.64
2018-10-02T01:54:10.531Z,5.64
2018-10-02T01:56:39.381Z,5.61
2018-10-02T01:59:08.451Z,5.58
2018-10-02T02:01:37.442Z,5.52
2018-10-02T02:04:06.276Z,5.54
2018-10-02T02:06:35.606Z,5.51
2018-10-02T02:09:05.660Z,5.47
2018-10-02T02:11:34.806Z,5.46
2018-10-02T02:14:03.588Z,5.45
2018-10-02T02:16:32.637Z,5.48
2018-10-02T02:19:01.863Z,5.49
2018-10-02T02:21:30.897Z,5.50
2018-10-02T02:23:59.913Z,5.53
2018-10-02T02:26:28.849Z,5.50
2018-10-02T02:28:57.713Z,5.53
2018-10-02T02:31:26.737Z,5.52
2018-10-02T02:33:55.536Z,5.51
2018-10-02T02:36:24.594Z,5.54
2018-10-02T02:38:53.442Z,5.55
2018-10-02T02:41:22.380Z,5.51
2018-10-02T02:43:51.234Z,5.53
2018-10-02T02:46:19.928Z,5.51
2018-10-02T02:48:53.952Z,5.51
2018-10-02T02:51:29.521Z,5.52
2018-10-02T02:53:58.385Z,5.51
2018-10-02T02:56:28.029Z,5.45
2018-10-02T02:58:57.795Z,5.44
2018-10-02T03:01:26.701Z,5.42
2018-10-02T03:03:55.460Z,5.42
2018-10-02T03:06:24.307Z,5.41
2018-10-02T03:08:53.373Z,5.40
2018-10-02T03:11:22.115Z,5.34
2018-10-02T03:13:50.901Z,5.37
2018-10-02T03:16:19.956Z,5.37
2018-10-02T03:18:48.758Z,5.36
2018-10-02T03:21:17.899Z,5.37
2018-10-02T03:23:46.800Z,5.36
2018-10-02T03:26:15.687Z,5.37
2018-10-02T03:28:44.891Z,5.36
2018-10-02T03:31:13.879Z,5.30
2018-10-02T03:33:43.054Z,5.26
2018-10-02T03:36:11.902Z,5.29
2018-10-02T03:38:40.773Z,5.31
2018-10-02T03:41:09.800Z,5.28
2018-10-02T03:43:38.921Z,5.26
2018-10-02T03:46:08.193Z,5.28
2018-10-02T03:48:37.373Z,5.32
2018-10-02T03:51:06.446Z,5.29
2018-10-02T03:53:35.607Z,5.32
2018-10-02T03:56:04.629Z,5.32
2018-10-02T03:58:33.536Z,5.34
2018-10-02T04:01:02.409Z,5.32
2018-10-02T04:03:31.212Z,5.34
2018-10-02T04:06:00.132Z,5.29
2018-10-02T04:08:29.095Z,5.26
2018-10-02T04:10:57.837Z,5.28
2018-10-02T04:13:26.761Z,5.33
2018-10-02T04:15:55.586Z,5.28
2018-10-02T04:18:24.219Z,5.25
2018-10-02T04:20:53.363Z,5.29
2018-10-02T04:23:22.277Z,5.29
2018-10-02T04:25:51.245Z,5.33
2018-10-02T04:28:20.085Z,5.34
2018-10-02T04:30:49.004Z,5.33
2018-10-02T04:33:17.893Z,5.31
2018-10-02T04:35:46.720Z,5.28
2018-10-02T04:38:15.524Z,5.28
2018-10-02T04:40:44.272Z,5.28
2018-10-02T04:43:13.165Z,5.26
2018-10-02T04:45:42.151Z,5.21
2018-10-02T04:48:10.890Z,5.13
2018-10-02T04:50:39.799Z,5.08
2018-10-02T04:53:08.768Z,5.05
2018-10-02T04:55:37.958Z,5.03
2018-10-02T04:58:07.630Z,4.97
2018-10-02T05:00:36.448Z,4.94
2018-10-02T05:03:05.304Z,4.96
2018-10-02T05:05:34.408Z,4.98
2018-10-02T05:08:03.307Z,5.00
2018-10-02T05:10:32.361Z,5.05
2018-10-02T05:13:01.400Z,5.14
2018-10-02T05:15:30.149Z,5.09
2018-10-02T05:17:59.287Z,5.07
2018-10-02T05:20:27.974Z,5.04
2018-10-02T05:22:56.822Z,5.02
2018-10-02T05:25:25.662Z,4.95
2018-10-02T05:27:54.487Z,5.00
2018-10-02T05:30:23.496Z,4.98
2018-10-02T05:32:52.275Z,4.96
2018-10-02T05:35:21.213Z,4.96
2018-10-02T05:37:50.224Z,5.00
2018-10-02T05:40:19.199Z,4.93
2018-10-02T05:42:48.207Z,4.98
2018-10-02T05:45:17.231Z,5.02
2018-10-02T05:47:46.121Z,5.06
2018-10-02T05:50:15.179Z,5.08
2018-10-02T05:52:43.957Z,5.13
2018-10-02T05:55:12.702Z,5.17
2018-10-02T05:57:41.839Z,5.20
2018-10-02T06:00:11.084Z,5.28
2018-10-02T06:02:39.970Z,5.32
2018-10-02T06:05:09.332Z,5.32
2018-10-02T06:07:38.523Z,5.36
2018-10-02T06:10:08.359Z,5.40
2018-10-02T06:12:37.549Z,5.44
2018-10-02T06:15:06.753Z,5.43
2018-10-02T06:17:35.609Z,5.40
2018-10-02T06:20:04.691Z,5.38
2018-10-02T06:22:33.466Z,5.40
2018-10-02T06:25:02.442Z,5.41
2018-10-02T06:27:31.358Z,5.41
2018-10-02T06:30:00.078Z,5.46
2018-10-02T06:32:28.800Z,5.46
2018-10-02T06:34:57.588Z,5.47
2018-10-02T06:37:26.638Z,5.52
2018-10-02T06:39:55.854Z,5.46
2018-10-02T06:42:25.340Z,5.47
2018-10-02T06:44:54.756Z,5.54
2018-10-02T06:47:24.053Z,5.53
2018-10-02T06:49:53.127Z,5.54
2018-10-02T06:52:22.304Z,5.48
2018-10-02T06:54:51.064Z,5.44
2018-10-02T06:57:20.460Z,5.41
2018-10-02T06:59:49.452Z,5.38
2018-10-02T07:02:18.602Z,5.40
2018-10-02T07:04:47.568Z,5.37
2018-10-02T07:07:16.692Z,5.42
2018-10-02T07:09:45.812Z,5.35
2018-10-02T07:12:15.262Z,5.39
2018-10-02T07:14:44.340Z,5.44
2018-10-02T07:17:13.144Z,5.47
2018-10-02T07:19:42.168Z,5.54
2018-10-02T07:22:11.169Z,5.58
2018-10-02T07:24:40.135Z,5.55
2018-10-02T07:27:09.601Z,5.60
2018-10-02T07:29:38.767Z,5.60
2018-10-02T07:32:07.796Z,5.59
2018-10-02T07:34:37.129Z,5.61
2018-10-02T07:37:06.421Z,5.58
2018-10-02T07:39:35.568Z,5.62
2018-10-02T07:42:04.389Z,5.66
2018-10-02T07:44:33.603Z,5.73
2018-10-02T07:47:02.574Z,5.80
2018-10-02T07:49:31.519Z,5.84
2018-10-02T07:52:00.601Z,5.84
2018-10-02T07:54:29.392Z,5.88
2018-10-02T07:56:58.143Z,5.84
2018-10-02T07:59:27.183Z,5.73
2018-10-02T08:01:56.013Z,5.77
2018-10-02T08:04:24.942Z,5.80
2018-10-02T08:06:54.023Z,5.80
2018-10-02T08:09:22.799Z,5.83
2018-10-02T08:11:51.788Z,5.84
2018-10-02T08:14:21.048Z,5.83
2018-10-02T08:16:50.038Z,5.75
2018-10-02T08:19:18.929Z,5.75
2018-10-02T08:21:47.839Z,5.78
2018-10-02T08:24:16.679Z,5.78
2018-10-02T08:26:45.948Z,5.83
2018-10-02T08:29:14.997Z,5.78
2018-10-02T08:31:43.993Z,5.83
2018-10-02T08:34:12.789Z,5.89
2018-10-02T08:36:41.517Z,5.88
2018-10-02T08:39:11.300Z,5.94
2018-10-02T08:41:40.844Z,5.94
2018-10-02T08:44:09.870Z,5.94
2018-10-02T08:46:38.963Z,5.98
2018-10-02T08:49:07.855Z,5.97
2018-10-02T08:51:37.117Z,5.96
2018-10-02T08:54:06.103Z,6.01
2018-10-02T08:56:34.805Z,6.06
2018-10-02T08:59:03.743Z,6.02
2018-10-02T09:01:32.501Z,6.08
2018-10-02T09:04:01.159Z,6.19
2018-10-02T09:06:29.900Z,6.29
2018-10-02T09:08:59.026Z,6.37
2018-10-02T09:11:28.395Z,6.34
2018-10-02T09:13:57.181Z,6.39
2018-10-02T09:16:26.096Z,6.43
2018-10-02T09:18:55.604Z,6.51
2018-10-02T09:21:24.495Z,6.56
2018-10-02T09:23:53.389Z,6.53
2018-10-02T09:26:22.197Z,6.52
2018-10-02T09:28:51.515Z,6.55
2018-10-02T09:31:25.428Z,6.58
2018-10-02T09:33:59.428Z,6.58
2018-10-02T09:36:33.500Z,6.52
2018-10-02T09:39:07.394Z,6.57
2018-10-02T09:41:41.479Z,6.58
2018-10-02T09:44:10.748Z,6.65
2018-10-02T09:46:39.701Z,6.62
2018-10-02T09:49:08.640Z,6.60
2018-10-02T09:51:37.856Z,6.57
2018-10-02T09:54:06.741Z,6.56
2018-10-02T09:56:40.970Z,6.62
2018-10-02T09:59:10.218Z,6.60
2018-10-02T10:01:44.677Z,6.62
2018-10-02T10:04:14.275Z,6.58
2018-10-02T10:06:43.654Z,6.56
2018-10-02T10:09:13.234Z,6.54
2018-10-02T10:11:42.888Z,6.60
2018-10-02T10:14:11.994Z,6.65
2018-10-02T10:16:41.092Z,6.60
2018-10-02T10:19:10.118Z,6.60
2018-10-02T10:21:39.136Z,6.68
2018-10-02T10:24:08.196Z,6.74
2018-10-02T10:26:37.214Z,6.84
2018-10-02T10:29:06.477Z,6.90
2018-10-02T10:31:35.265Z,6.86
2018-10-02T10:34:04.542Z,6.85
2018-10-02T10:36:33.499Z,6.69
2018-10-02T10:39:02.680Z,6.70
2018-10-02T10:41:31.612Z,6.66
2018-10-02T10:44:00.813Z,6.68
2018-10-02T10:46:29.604Z,6.70
2018-10-02T10:48:58.441Z,6.72
2018-10-02T10:51:27.345Z,6.72
2018-10-02T10:53:56.490Z,6.65
2018-10-02T10:56:25.494Z,6.67
2018-10-02T10:58:54.526Z,6.72
2018-10-02T11:01:23.397Z,6.68
2018-10-02T11:03:52.477Z,6.64
2018-10-02T11:06:21.334Z,6.63
2018-10-02T11:08:50.028Z,6.62
2018-10-02T11:11:18.993Z,6.52
2018-10-02T11:13:48.046Z,6.53
2018-10-02T11:16:16.972Z,6.63
2018-10-02T11:18:46.236Z,6.72
2018-10-02T11:21:15.272Z,6.70
2018-10-02T11:23:44.393Z,6.81
2018-10-02T11:26:13.320Z,6.85
2018-10-02T11:28:42.197Z,6.91
2018-10-02T11:31:11.271Z,6.93
2018-10-02T11:33:40.304Z,6.91
2018-10-02T11:36:09.277Z,6.92
2018-10-02T11:38:38.458Z,6.96
2018-10-02T11:41:07.316Z,6.96
2018-10-02T11:43:36.266Z,6.98
2018-10-02T11:46:05.441Z,6.90
2018-10-02T11:48:34.145Z,6.87
2018-10-02T11:51:03.190Z,6.90
2018-10-02T11:53:32.270Z,6.95
2018-10-02T11:56:01.283Z,7.02
2018-10-02T11:58:30.217Z,6.98
2018-10-02T12:00:59.052Z,6.98
2018-10-02T12:03:28.318Z,7.02
2018-10-02T12:05:56.991Z,7.03
2018-10-02T12:08:25.967Z,7.03
2018-10-02T12:10:54.774Z,7.04
2018-10-02T12:13:23.738Z,7.10
2018-10-02T12:15:52.590Z,7.17
2018-10-02T12:18:21.232Z,7.17
2018-10-02T12:20:50.222Z,7.19
2018-10-02T12:23:18.962Z,7.18
2018-10-02T12:29:20.553Z,7.16
2018-10-02T12:31:49.797Z,7.18
2018-10-02T12:34:18.898Z,7.14
2018-10-02T12:36:48.053Z,7.16
2018-10-02T12:39:16.967Z,7.10
2018-10-02T12:41:45.762Z,7.09
2018-10-02T12:44:15.212Z,7.06
2018-10-02T12:46:44.115Z,7.11
2018-10-02T12:49:13.146Z,7.14
2018-10-02T12:51:42.246Z,7.09
2018-10-02T12:54:11.140Z,7.01
2018-10-02T12:56:39.981Z,6.94
2018-10-02T12:59:08.609Z,6.90
2018-10-02T13:01:37.483Z,6.98
2018-10-02T13:04:06.409Z,7.03
2018-10-02T13:06:35.740Z,7.04
2018-10-02T13:09:05.709Z,7.15
2018-10-02T13:11:34.556Z,7.21
2018-10-02T13:14:03.258Z,7.23
2018-10-02T13:16:32.243Z,7.25
2018-10-02T13:19:01.104Z,7.17
2018-10-02T13:21:29.949Z,7.16
2018-10-02T13:23:58.987Z,7.19
2018-10-02T13:26:28.234Z,7.22
2018-10-02T13:28:57.174Z,7.27
2018-10-02T13:31:26.036Z,7.29
2018-10-02T13:33:54.900Z,7.33
2018-10-02T13:36:23.745Z,7.32
2018-10-02T13:38:52.755Z,7.29
2018-10-02T13:41:21.687Z,7.20
2018-10-02T13:43:50.556Z,7.06
2018-10-02T13:46:19.489Z,7.09
2018-10-02T13:48:48.895Z,7.12
2018-10-02T13:51:17.885Z,7.16
2018-10-02T13:53:47.034Z,7.21
2018-10-02T13:56:16.028Z,7.21
2018-10-02T13:58:45.035Z,7.23
2018-10-02T14:01:13.834Z,7.26
2018-10-02T14:03:42.889Z,7.31
2018-10-02T14:06:11.656Z,7.25
2018-10-02T14:08:40.722Z,7.34
2018-10-02T14:11:10.237Z,7.38
2018-10-02T14:13:39.779Z,7.28
2018-10-02T14:16:08.867Z,7.27
2018-10-02T14:18:37.960Z,7.23
2018-10-02T14:21:07.310Z,7.16
2018-10-02T14:23:36.350Z,7.07
2018-10-02T14:26:05.174Z,6.98
2018-10-02T14:28:33.981Z,6.98
2018-10-02T14:31:02.987Z,6.99
2018-10-02T14:33:31.968Z,7.04
2018-10-02T14:36:01.755Z,7.01
2018-10-02T14:38:31.516Z,7.00
2018-10-02T14:41:00.565Z,6.91
2018-10-02T14:43:29.273Z,6.88
2018-10-02T14:45:58.432Z,6.80
2018-10-02T14:48:27.753Z,6.70
2018-10-02T14:50:57.111Z,6.64
2018-10-02T14:53:26.416Z,6.50
2018-10-02T14:55:55.550Z,6.43
2018-10-02T14:58:25.733Z,6.41
2018-10-02T15:00:55.683Z,6.40
2018-10-02T15:03:24.825Z,6.36
2018-10-02T15:05:54.005Z,6.39
2018-10-02T15:08:23.131Z,6.39
2018-10-02T15:10:52.878Z,6.39
2018-10-02T15:13:21.789Z,6.42
2018-10-02T15:15:50.992Z,6.41
2018-10-02T15:18:20.262Z,6.40
2018-10-02T15:20:49.205Z,6.41
2018-10-02T15:23:18.810Z,6.36
2018-10-02T15:25:47.943Z,6.32
2018-10-02T15:28:16.890Z,6.23
2018-10-02T15:30:46.247Z,6.19
2018-10-02T15:33:15.266Z,6.18
2018-10-02T15:35:44.352Z,6.15
2018-10-02T15:38:13.266Z,6.05
2018-10-02T15:40:42.232Z,5.98
2018-10-02T15:43:11.049Z,5.93
2018-10-02T15:45:40.175Z,5.92
2018-10-02T15:48:09.191Z,5.94
2018-10-02T15:50:38.175Z,5.89
2018-10-02T15:53:07.223Z,5.88
2018-10-02T15:55:36.345Z,5.85
2018-10-02T15:58:05.626Z,5.78
2018-10-02T16:00:34.559Z,5.74
2018-10-02T16:03:03.475Z,5.69
2018-10-02T16:05:32.433Z,5.65
2018-10-02T16:08:01.644Z,5.58
2018-10-02T16:10:30.664Z,5.51
2018-10-02T16:12:59.853Z,5.40
2018-10-02T16:15:29.137Z,5.34
2018-10-02T16:17:58.100Z,5.26
2018-10-02T16:20:26.971Z,5.18
2018-10-02T16:22:55.890Z,5.12
2018-10-02T16:25:24.980Z,5.04
2018-10-02T16:27:54.360Z,5.00
2018-10-02T16:30:23.555Z,4.89
2018-10-02T16:32:52.412Z,4.81
2018-10-02T16:35:21.871Z,4.74
2018-10-02T16:37:50.907Z,4.69
2018-10-02T16:40:19.998Z,4.64
2018-10-02T16:42:49.129Z,4.56
2018-10-02T16:45:18.202Z,4.48
2018-10-02T16:47:47.098Z,4.53
2018-10-02T16:50:16.260Z,4.46
2018-10-02T16:52:45.386Z,4.41
2018-10-02T16:55:14.465Z,4.37
2018-10-02T16:57:43.350Z,4.30
2018-10-02T17:00:12.450Z,4.24
2018-10-02T17:02:41.722Z,4.18
2018-10-02T17:05:10.511Z,4.12
2018-10-02T17:07:39.854Z,4.06
2018-10-02T17:10:08.843Z,4.00
2018-10-02T17:12:38.022Z,3.94
2018-10-02T17:15:06.814Z,3.90
2018-10-02T17:17:36.071Z,3.81
2018-10-02T17:20:05.281Z,3.79
2018-10-02T17:22:34.388Z,3.72
2018-10-02T17:25:03.280Z,3.67
2018-10-02T17:27:32.048Z,3.59
2018-10-02T17:30:01.316Z,3.54
2018-10-02T17:32:30.263Z,3.45
2018-10-02T17:35:00.437Z,3.38
2018-10-02T17:37:29.615Z,3.38
2018-10-02T17:39:59.968Z,3.38
2018-10-02T17:42:33.269Z,3.36
2018-10-02T17:45:07.288Z,3.29
2018-10-02T17:47:38.711Z,3.30
2018-10-02T17:50:08.111Z,3.27
2018-10-02T17:52:37.717Z,3.30
2018-10-02T17:55:06.932Z,3.28
2018-10-02T17:57:37.154Z,3.22
2018-10-02T18:00:08.429Z,3.25
2018-10-02T18:02:38.330Z,3.25
2018-10-02T18:05:07.828Z,3.19
2018-10-02T18:07:37.434Z,3.17
2018-10-02T18:10:06.742Z,3.12
2018-10-02T18:12:35.989Z,3.15
2018-10-02T18:15:05.223Z,3.23
2018-10-02T18:17:34.517Z,3.23
2018-10-02T18:20:03.978Z,3.17
2018-10-02T18:22:33.924Z,3.09
2018-10-02T18:25:04.866Z,3.09
2018-10-02T18:27:34.011Z,3.04
2018-10-02T18:30:02.910Z,3.27
2018-10-02T18:32:33.652Z,3.31
2018-10-02T18:35:06.960Z,3.33
2018-10-02T18:37:35.895Z,3.33
2018-10-02T18:40:05.725Z,3.39
2018-10-02T18:42:35.553Z,3.43
2018-10-02T18:45:04.779Z,3.45
2018-10-02T18:47:36.001Z,3.49
2018-10-02T18:50:05.450Z,3.53
2018-10-02T18:52:35.817Z,3.60
2018-10-02T18:55:05.326Z,3.63
2018-10-02T18:57:35.581Z,3.62
2018-10-02T19:00:05.248Z,3.60
2018-10-02T19:02:34.945Z,3.55
2018-10-02T19:05:04.844Z,3.52
2018-10-02T19:07:33.888Z,3.48
2018-10-02T19:10:03.700Z,3.40
2018-10-02T19:12:33.137Z,3.35
2018-10-02T19:15:02.163Z,3.36
2018-10-02T19:17:31.674Z,3.30
2018-10-02T19:21:05.572Z,3.25
2018-10-02T19:23:35.536Z,3.23
2018-10-02T19:26:11.073Z,3.19
2018-10-02T19:28:40.383Z,3.21
2018-10-02T19:31:14.792Z,3.20
2018-10-02T19:33:47.389Z,3.19
2018-10-02T19:36:17.841Z,3.17
2018-10-02T19:38:52.303Z,3.19
2018-10-02T19:41:21.576Z,3.17
2018-10-02T19:43:50.843Z,3.21
2018-10-02T19:46:24.409Z,3.17
2018-10-02T19:48:55.098Z,3.17
2018-10-02T19:51:29.394Z,3.14
2018-10-02T19:54:00.325Z,3.20
2018-10-02T19:56:29.459Z,3.33
2018-10-02T19:58:58.657Z,3.38
2018-10-02T20:01:27.885Z,3.40
2018-10-02T20:03:57.259Z,3.46
2018-10-02T20:06:26.542Z,3.43
2018-10-02T20:08:55.702Z,3.49
2018-10-02T20:11:25.042Z,3.49
2018-10-02T20:13:54.519Z,3.56
2018-10-02T20:16:23.505Z,3.66
2018-10-02T20:18:53.875Z,3.75
2018-10-02T20:21:23.126Z,3.87
2018-10-02T20:23:52.248Z,3.96
2018-10-02T20:26:21.285Z,4.04
2018-10-02T20:28:50.296Z,4.10
2018-10-02T20:31:20.707Z,4.18
2018-10-02T20:33:49.764Z,4.24
2018-10-02T20:36:18.997Z,4.30
2018-10-02T20:38:47.730Z,4.29
2018-10-02T20:41:16.488Z,4.32
2018-10-02T20:43:46.294Z,4.37
2018-10-02T20:46:15.867Z,4.36
2018-10-02T20:48:44.734Z,4.39
2018-10-02T20:51:13.896Z,4.41
2018-10-02T20:53:43.116Z,4.42
2018-10-02T20:56:12.100Z,4.46
2018-10-02T20:58:40.866Z,4.46
2018-10-02T21:01:09.733Z,4.46
2018-10-02T21:03:39.429Z,4.48
2018-10-02T21:06:08.882Z,4.46
2018-10-02T21:08:38.598Z,4.44
2018-10-02T21:11:08.591Z,4.42
2018-10-02T21:13:37.964Z,3.61
2018-10-02T21:16:07.410Z,4.43
2018-10-02T21:18:37.689Z,4.39
2018-10-02T21:21:06.787Z,4.39
2018-10-02T21:23:35.774Z,4.41
2018-10-02T21:26:05.217Z,4.36
2018-10-02T21:28:34.601Z,4.36
2018-10-02T21:31:03.521Z,4.34
2018-10-02T21:33:32.983Z,4.28
2018-10-02T21:36:01.899Z,4.33
2018-10-02T21:38:31.872Z,4.34
2018-10-02T21:41:00.847Z,4.29
2018-10-02T21:43:29.512Z,4.27
2018-10-02T21:45:58.685Z,4.21
2018-10-02T21:48:27.910Z,4.26
2018-10-02T21:50:57.188Z,4.26
2018-10-02T21:53:26.643Z,4.24
2018-10-02T21:55:56.052Z,4.25
2018-10-02T21:58:25.791Z,4.21
2018-10-02T22:00:58.618Z,4.16
2018-10-02T22:03:27.603Z,4.13
2018-10-02T22:05:56.626Z,4.10
2018-10-02T22:08:25.437Z,4.12
2018-10-02T22:10:54.394Z,4.12
2018-10-02T22:13:27.011Z,4.14
2018-10-02T22:15:57.294Z,4.09
2018-10-02T22:18:26.290Z,4.09
2018-10-02T22:20:56.242Z,4.12
2018-10-02T22:23:25.383Z,4.16
2018-10-02T22:25:54.888Z,4.15
2018-10-02T22:28:23.921Z,4.11
2018-10-02T22:30:53.028Z,4.10
2018-10-02T22:33:22.072Z,4.12
2018-10-02T22:35:52.257Z,4.16
2018-10-02T22:38:21.596Z,4.18
2018-10-02T22:40:50.899Z,4.13
2018-10-02T22:43:19.964Z,4.11
2018-10-02T22:45:49.350Z,4.08
2018-10-02T22:48:18.406Z,4.12
2018-10-02T22:50:47.631Z,4.10
2018-10-02T22:53:16.976Z,4.14
2018-10-02T22:55:46.001Z,4.18
2018-10-02T22:58:14.945Z,4.16
2018-10-02T23:00:43.814Z,4.20
2018-10-02T23:03:12.722Z,4.21
2018-10-02T23:05:41.731Z,4.20
2018-10-02T23:08:10.889Z,4.18
2018-10-02T23:10:40.115Z,4.15
2018-10-02T23:13:09.106Z,4.13
2018-10-02T23:15:38.186Z,4.08
2018-10-02T23:18:07.232Z,4.09
2018-10-02T23:21:38.735Z,4.08
2018-10-02T23:24:08.232Z,4.02
2018-10-02T23:26:38.761Z,3.93
2018-10-02T23:29:07.879Z,3.88
2018-10-02T23:31:37.071Z,3.80
2018-10-02T23:34:06.025Z,3.76
2018-10-02T23:36:34.988Z,3.70
2018-10-02T23:39:04.940Z,3.69
2018-10-02T23:41:34.903Z,3.67
2018-10-02T23:44:03.954Z,3.63
2018-10-02T23:46:32.706Z,3.61
2018-10-02T23:49:01.600Z,3.63
2018-10-02T23:51:30.481Z,3.63
2018-10-02T23:53:59.570Z,3.60
2018-10-02T23:56:28.872Z,3.60
2018-10-02T23:58:57.603Z,3.62
